createdAt,value
2022-09-16T00:00:56.753Z,17.75
2022-09-16T00:03:25.488Z,17.75
2022-09-16T00:05:54.177Z,17.74
2022-09-16T00:08:22.876Z,17.74
2022-09-16T00:10:50.616Z,17.74
2022-09-16T00:13:18.914Z,17.75
2022-09-16T00:15:51.234Z,17.72
2022-09-16T00:18:20.382Z,17.71
2022-09-16T00:20:51.814Z,17.69
2022-09-16T00:23:19.954Z,17.65
2022-09-16T00:25:52.516Z,17.62
2022-09-16T00:28:21.602Z,17.57
2022-09-16T00:30:49.815Z,17.54
2022-09-16T00:33:17.622Z,17.51
2022-09-16T00:35:45.144Z,17.48
2022-09-16T00:38:14.254Z,17.46
2022-09-16T00:40:45.622Z,17.44
2022-09-16T00:43:15.009Z,17.45
2022-09-16T00:45:46.223Z,17.45
2022-09-16T00:48:21.431Z,17.48
2022-09-16T00:50:54.167Z,17.54
2022-09-16T00:53:28.494Z,17.61
2022-09-16T00:56:00.225Z,17.66
2022-09-16T00:58:40.799Z,17.74
2022-09-16T01:01:08.239Z,17.80
2022-09-16T01:03:44.718Z,17.87
2022-09-16T01:06:15.131Z,17.92
2022-09-16T01:08:45.841Z,17.95
2022-09-16T01:11:13.154Z,17.97
2022-09-16T01:13:42.712Z,17.98
2022-09-16T01:16:21.074Z,17.93
2022-09-16T01:19:01.095Z,17.85
2022-09-16T01:21:45.722Z,17.71
2022-09-16T01:24:48.870Z,17.59
2022-09-16T01:27:58.379Z,17.51
2022-09-16T01:30:54.013Z,17.52
2022-09-16T01:33:39.415Z,17.59
2022-09-16T01:36:31.314Z,17.63
2022-09-16T01:39:18.673Z,17.67
2022-09-16T01:42:10.482Z,17.68
2022-09-16T01:44:46.979Z,17.70
2022-09-16T01:47:27.402Z,17.68
2022-09-16T01:50:05.879Z,17.64
2022-09-16T01:52:46.139Z,17.58
2022-09-16T01:55:24.034Z,17.55
2022-09-16T01:57:59.692Z,17.53
2022-09-16T02:00:27.932Z,17.52
2022-09-16T02:03:02.301Z,17.48
2022-09-16T02:05:37.249Z,17.43
2022-09-16T02:08:11.052Z,17.37
2022-09-16T02:10:43.633Z,17.35
2022-09-16T02:13:19.395Z,17.33
2022-09-16T02:15:53.986Z,17.35
2022-09-16T02:18:28.152Z,17.36
2022-09-16T02:21:01.119Z,17.39
2022-09-16T02:23:37.645Z,17.39
2022-09-16T02:26:09.525Z,17.40
2022-09-16T02:28:44.014Z,17.40
2022-09-16T02:31:14.731Z,17.43
2022-09-16T02:33:53.961Z,17.45
2022-09-16T02:36:25.741Z,17.47
2022-09-16T02:38:57.989Z,17.51
2022-09-16T02:41:25.528Z,17.54
2022-09-16T02:43:52.941Z,17.54
2022-09-16T02:46:37.719Z,17.52
2022-09-16T02:49:17.215Z,17.53
2022-09-16T02:51:57.224Z,17.56
2022-09-16T02:54:39.473Z,17.55
2022-09-16T02:57:09.352Z,17.54
2022-09-16T02:59:37.810Z,17.51
2022-09-16T03:02:08.084Z,17.46
2022-09-16T03:04:36.878Z,17.44
2022-09-16T03:07:07.866Z,17.38
2022-09-16T03:09:40.170Z,17.31
2022-09-16T03:12:30.002Z,17.21
2022-09-16T03:15:18.757Z,17.13
2022-09-16T03:18:11.878Z,17.06
2022-09-16T03:20:51.545Z,17.02
2022-09-16T03:23:36.382Z,16.98
2022-09-16T03:26:15.409Z,16.95
2022-09-16T03:28:55.130Z,16.94
2022-09-16T03:31:30.210Z,16.92
2022-09-16T03:34:08.865Z,16.94
2022-09-16T03:36:45.833Z,16.95
2022-09-16T03:39:14.562Z,16.99
2022-09-16T03:41:43.056Z,17.01
2022-09-16T03:44:10.329Z,17.07
2022-09-16T03:46:37.737Z,17.11
2022-09-16T03:49:05.311Z,17.12
2022-09-16T03:51:32.655Z,17.14
2022-09-16T03:54:01.259Z,17.17
2022-09-16T03:56:28.534Z,17.19
2022-09-16T03:58:55.808Z,17.22
2022-09-16T04:01:23.121Z,17.22
2022-09-16T04:03:52.335Z,17.23
2022-09-16T04:06:19.947Z,17.22
2022-09-16T04:08:50.505Z,17.20
2022-09-16T04:11:19.223Z,17.17
2022-09-16T04:13:46.482Z,17.14
2022-09-16T04:16:21.457Z,17.11
2022-09-16T04:18:49.561Z,17.05
2022-09-16T04:21:17.721Z,17.02
2022-09-16T04:23:45.336Z,17.00
2022-09-16T04:26:12.656Z,16.99
2022-09-16T04:28:41.265Z,17.01
2022-09-16T04:31:13.748Z,17.03
2022-09-16T04:33:41.782Z,17.08
2022-09-16T04:36:12.700Z,17.08
2022-09-16T04:38:41.586Z,17.09
2022-09-16T04:41:13.115Z,17.08
2022-09-16T04:43:42.913Z,17.08
2022-09-16T04:46:10.917Z,17.08
2022-09-16T04:48:38.809Z,17.07
2022-09-16T04:51:11.054Z,17.06
2022-09-16T04:53:41.434Z,17.05
2022-09-16T04:56:15.602Z,17.05
2022-09-16T04:58:46.243Z,17.04
2022-09-16T05:01:19.712Z,17.05
2022-09-16T05:03:53.439Z,17.03
2022-09-16T05:06:24.103Z,17.01
2022-09-16T05:08:53.848Z,16.97
2022-09-16T05:11:24.177Z,16.92
2022-09-16T05:13:54.200Z,16.89
2022-09-16T05:16:23.922Z,16.86
2022-09-16T05:18:54.745Z,16.81
2022-09-16T05:21:24.557Z,16.77
2022-09-16T05:23:55.935Z,16.74
2022-09-16T05:26:26.327Z,16.72
2022-09-16T05:28:55.310Z,16.71
2022-09-16T05:31:26.567Z,16.70
2022-09-16T05:33:58.346Z,16.66
2022-09-16T05:36:27.952Z,16.64
2022-09-16T05:39:21.130Z,16.63
2022-09-16T05:41:44.660Z,16.61
2022-09-16T05:44:13.737Z,16.62
2022-09-16T05:46:41.905Z,16.60
2022-09-16T05:49:10.067Z,16.59
2022-09-16T05:51:38.938Z,16.60
2022-09-16T05:54:06.358Z,16.60
2022-09-16T05:56:34.146Z,16.64
2022-09-16T05:59:02.227Z,16.68
2022-09-16T06:01:33.344Z,16.71
2022-09-16T06:04:03.500Z,16.73
2022-09-16T06:06:33.156Z,16.73
2022-09-16T06:09:05.150Z,16.77
2022-09-16T06:11:36.717Z,16.79
2022-09-16T06:14:05.974Z,16.86
2022-09-16T06:16:35.491Z,16.93
2022-09-16T06:19:06.600Z,17.02
2022-09-16T06:21:34.428Z,17.11
2022-09-16T06:24:03.361Z,17.15
2022-09-16T06:26:30.679Z,17.18
2022-09-16T06:28:57.922Z,17.20
2022-09-16T06:31:27.959Z,17.23
2022-09-16T06:33:58.376Z,17.27
2022-09-16T06:36:32.382Z,17.29
2022-09-16T06:38:59.830Z,17.33
2022-09-16T06:41:27.441Z,17.37
2022-09-16T06:43:54.810Z,17.42
2022-09-16T06:46:26.549Z,17.48
2022-09-16T06:48:59.283Z,17.55
2022-09-16T06:51:31.780Z,17.63
2022-09-16T06:54:02.696Z,17.70
2022-09-16T06:56:30.092Z,17.76
2022-09-16T06:58:58.418Z,17.94
2022-09-16T07:01:29.253Z,18.31
2022-09-16T07:04:02.762Z,18.80
2022-09-16T07:06:58.297Z,19.47
2022-09-16T07:09:20.279Z,20.20
2022-09-16T07:11:47.561Z,20.76
2022-09-16T07:14:14.841Z,21.17
2022-09-16T07:16:42.134Z,21.50
2022-09-16T07:19:10.962Z,21.82
2022-09-16T07:21:38.282Z,22.23
2022-09-16T07:24:05.911Z,22.69
2022-09-16T07:26:37.756Z,23.11
2022-09-16T07:29:10.005Z,23.65
2022-09-16T07:31:38.469Z,24.15
2022-09-16T07:34:08.905Z,24.76
2022-09-16T07:36:41.156Z,25.43
2022-09-16T07:39:09.371Z,25.95
2022-09-16T07:41:40.007Z,26.44
2022-09-16T07:44:11.242Z,26.74
2022-09-16T07:46:38.797Z,26.78
2022-09-16T07:49:09.534Z,26.99
2022-09-16T07:51:38.336Z,27.28
2022-09-16T07:54:09.605Z,27.63
2022-09-16T07:56:39.817Z,27.92
2022-09-16T07:59:13.071Z,28.13
2022-09-16T08:01:43.865Z,28.24
2022-09-16T08:04:12.107Z,28.42
2022-09-16T08:06:41.295Z,28.78
2022-09-16T08:09:27.247Z,29.03
2022-09-16T08:11:57.824Z,29.16
2022-09-16T08:14:25.475Z,29.46
2022-09-16T08:16:53.006Z,29.90
2022-09-16T08:19:22.301Z,30.40
2022-09-16T08:21:51.918Z,30.81
2022-09-16T08:24:19.426Z,31.06
2022-09-16T08:26:46.704Z,31.27
2022-09-16T08:29:14.365Z,31.62
2022-09-16T08:31:41.955Z,31.90
2022-09-16T08:34:09.259Z,32.27
2022-09-16T08:36:37.191Z,32.36
2022-09-16T08:39:06.570Z,32.48
2022-09-16T08:42:00.198Z,32.65
2022-09-16T08:44:41.878Z,32.85
2022-09-16T08:47:27.652Z,33.05
2022-09-16T08:49:58.763Z,33.15
2022-09-16T08:52:32.210Z,33.39
2022-09-16T08:55:07.927Z,33.56
2022-09-16T08:57:41.588Z,33.85
2022-09-16T09:00:17.548Z,34.08
2022-09-16T09:02:53.855Z,34.39
2022-09-16T09:05:35.667Z,34.78
2022-09-16T09:08:21.566Z,34.94
2022-09-16T09:10:57.418Z,35.06
2022-09-16T09:13:57.199Z,35.11
2022-09-16T09:16:38.086Z,35.07
2022-09-16T09:19:31.494Z,34.83
2022-09-16T09:22:16.512Z,35.05
2022-09-16T09:25:20.470Z,35.40
2022-09-16T09:28:12.798Z,35.35
2022-09-16T09:30:50.369Z,35.47
2022-09-16T09:36:45.494Z,35.54
2022-09-16T09:39:40.628Z,34.72
2022-09-16T09:42:18.622Z,34.17
2022-09-16T09:44:58.508Z,34.10
2022-09-16T09:47:36.991Z,33.91
2022-09-16T09:50:17.825Z,33.31
2022-09-16T09:52:54.292Z,33.10
2022-09-16T09:55:24.874Z,33.09
2022-09-16T09:58:12.184Z,33.58
2022-09-16T10:00:41.533Z,33.05
2022-09-16T10:03:14.574Z,32.23
2022-09-16T10:05:42.196Z,31.17
2022-09-16T10:08:22.814Z,29.99
2022-09-16T10:10:52.763Z,28.96
2022-09-16T10:13:22.223Z,28.56
2022-09-16T10:15:55.804Z,28.85
2022-09-16T10:18:30.001Z,29.17
2022-09-16T10:21:04.834Z,29.31
2022-09-16T10:23:33.836Z,28.96
2022-09-16T10:26:20.207Z,28.83
2022-09-16T10:28:57.311Z,28.57
2022-09-16T10:31:34.378Z,28.40
2022-09-16T10:34:05.480Z,28.59
2022-09-16T10:36:35.810Z,28.78
2022-09-16T10:39:05.693Z,28.79
2022-09-16T10:41:40.827Z,28.54
2022-09-16T10:44:17.476Z,28.17
2022-09-16T10:46:54.850Z,27.59
2022-09-16T10:49:29.582Z,26.89
2022-09-16T10:52:16.718Z,26.17
2022-09-16T10:54:45.107Z,25.90
2022-09-16T10:57:26.705Z,25.79
2022-09-16T11:00:08.883Z,26.01
2022-09-16T11:03:24.120Z,26.14
2022-09-16T11:06:07.618Z,25.94
2022-09-16T11:08:54.816Z,25.62
2022-09-16T11:11:49.691Z,25.42
2022-09-16T11:14:37.525Z,25.25
2022-09-16T11:17:29.979Z,25.12
2022-09-16T11:20:35.528Z,24.94
2022-09-16T11:23:21.056Z,24.85
2022-09-16T11:26:00.676Z,25.04
2022-09-16T11:29:06.051Z,25.18
2022-09-16T11:31:51.987Z,25.32
2022-09-16T11:34:39.655Z,25.38
2022-09-16T11:37:19.505Z,25.31
2022-09-16T11:40:11.617Z,25.23
2022-09-16T11:42:43.608Z,25.02
2022-09-16T11:45:36.730Z,24.71
2022-09-16T11:48:39.858Z,24.36
2022-09-16T11:51:25.086Z,24.06
2022-09-16T11:57:02.640Z,23.44
2022-09-16T11:59:39.786Z,23.20
2022-09-16T12:02:20.921Z,23.01
2022-09-16T12:04:56.993Z,22.92
2022-09-16T12:07:38.642Z,22.86
2022-09-16T12:10:21.122Z,22.87
2022-09-16T12:12:57.705Z,22.88
2022-09-16T12:15:30.077Z,23.03
2022-09-16T12:18:06.640Z,23.18
2022-09-16T12:20:40.648Z,23.31
2022-09-16T12:23:18.683Z,23.44
2022-09-16T12:26:05.869Z,23.43
2022-09-16T12:28:42.977Z,23.48
2022-09-16T12:31:23.022Z,23.58
2022-09-16T12:33:58.888Z,23.68
2022-09-16T12:36:32.512Z,23.77
2022-09-16T12:39:01.409Z,23.78
2022-09-16T12:42:33.260Z,23.67
2022-09-16T12:45:31.305Z,23.69
2022-09-16T12:48:31.248Z,23.72
2022-09-16T12:51:23.676Z,23.75
2022-09-16T12:54:41.289Z,23.76
2022-09-16T12:57:42.638Z,23.70
2022-09-16T13:00:22.049Z,23.65
2022-09-16T13:02:55.233Z,23.73
2022-09-16T13:05:30.959Z,23.79
2022-09-16T13:08:06.793Z,23.84
2022-09-16T13:10:54.947Z,23.92
2022-09-16T13:13:35.507Z,24.00
2022-09-16T13:16:07.000Z,24.07
2022-09-16T13:18:49.145Z,24.10
2022-09-16T13:21:27.143Z,23.98
2022-09-16T13:24:05.280Z,23.81
2022-09-16T13:26:44.812Z,23.58
2022-09-16T13:29:43.901Z,23.32
2022-09-16T13:32:28.958Z,23.14
2022-09-16T13:35:06.141Z,23.00
2022-09-16T13:37:33.639Z,22.87
2022-09-16T13:40:18.248Z,22.70
2022-09-16T13:42:45.594Z,22.62
2022-09-16T13:45:35.433Z,22.48
2022-09-16T13:48:12.916Z,22.42
2022-09-16T13:50:45.841Z,22.34
2022-09-16T13:53:27.907Z,22.24
2022-09-16T13:56:06.143Z,22.21
2022-09-16T13:58:42.312Z,22.18
2022-09-16T14:01:28.033Z,22.16
2022-09-16T14:04:13.235Z,22.10
2022-09-16T14:07:00.445Z,22.03
2022-09-16T14:09:47.151Z,21.98
2022-09-16T14:12:23.648Z,21.93
2022-09-16T14:14:52.230Z,21.92
2022-09-16T14:17:25.753Z,21.89
2022-09-16T14:19:58.996Z,21.84
2022-09-16T14:22:28.001Z,21.77
2022-09-16T14:25:06.308Z,21.70
2022-09-16T14:27:40.480Z,21.62
2022-09-16T14:30:20.535Z,21.55
2022-09-16T14:32:53.018Z,21.52
2022-09-16T14:35:24.847Z,21.46
2022-09-16T14:37:57.217Z,21.37
2022-09-16T14:40:27.171Z,21.32
2022-09-16T14:43:03.253Z,21.28
2022-09-16T14:45:33.146Z,21.23
2022-09-16T14:48:08.611Z,21.17
2022-09-16T14:50:42.616Z,21.13
2022-09-16T14:53:34.761Z,21.03
2022-09-16T14:56:03.967Z,20.99
2022-09-16T14:58:33.867Z,20.95
2022-09-16T15:01:09.069Z,20.90
2022-09-16T15:03:49.921Z,20.79
2022-09-16T15:06:22.969Z,20.67
2022-09-16T15:08:58.605Z,20.56
2022-09-16T15:11:48.701Z,20.48
2022-09-16T15:14:18.025Z,20.35
2022-09-16T15:16:51.433Z,20.22
2022-09-16T15:19:25.337Z,20.04
2022-09-16T15:21:53.525Z,19.90
2022-09-16T15:24:25.985Z,19.78
2022-09-16T15:26:54.105Z,19.67
2022-09-16T15:29:34.111Z,19.57
2022-09-16T15:32:20.950Z,19.44
2022-09-16T15:35:10.461Z,19.33
2022-09-16T15:37:38.065Z,19.27
2022-09-16T15:40:31.665Z,19.13
2022-09-16T15:43:12.208Z,19.03
2022-09-16T15:45:40.133Z,18.93
2022-09-16T15:48:17.466Z,18.82
2022-09-16T15:50:51.183Z,18.71
2022-09-16T15:53:34.165Z,18.62
2022-09-16T15:56:08.077Z,18.55
2022-09-16T15:58:41.939Z,18.46
2022-09-16T16:01:15.752Z,18.38
2022-09-16T16:03:54.729Z,18.30
2022-09-16T16:06:46.489Z,18.17
2022-09-16T16:09:44.272Z,18.08
2022-09-16T16:12:16.332Z,18.08
2022-09-16T16:14:46.557Z,18.07
2022-09-16T16:17:17.163Z,18.01
2022-09-16T16:19:46.925Z,17.98
2022-09-16T16:22:16.581Z,17.92
2022-09-16T16:24:45.401Z,17.91
2022-09-16T16:27:12.821Z,17.93
2022-09-16T16:29:40.270Z,17.92
2022-09-16T16:32:09.974Z,17.92
2022-09-16T16:34:41.003Z,17.92
2022-09-16T16:37:19.161Z,17.96
2022-09-16T16:39:57.418Z,17.99
2022-09-16T16:42:25.261Z,18.03
2022-09-16T16:44:52.592Z,18.04
2022-09-16T16:47:19.836Z,18.07
2022-09-16T16:49:51.332Z,18.09
2022-09-16T16:52:19.230Z,18.10
2022-09-16T16:54:46.710Z,18.10
2022-09-16T16:57:15.329Z,18.11
2022-09-16T16:59:42.625Z,18.05
2022-09-16T17:02:11.723Z,18.01
2022-09-16T17:04:39.102Z,17.98
2022-09-16T17:07:25.255Z,17.98
2022-09-16T17:09:54.014Z,17.96
2022-09-16T17:12:22.664Z,17.98
2022-09-16T17:14:50.172Z,18.00
2022-09-16T17:17:17.540Z,18.01
2022-09-16T17:19:44.969Z,17.99
2022-09-16T17:22:12.267Z,17.96
2022-09-16T17:24:39.622Z,17.92
2022-09-16T17:27:06.905Z,17.84
2022-09-16T17:29:35.565Z,17.81
2022-09-16T17:32:03.514Z,17.76
2022-09-16T17:34:31.269Z,17.74
2022-09-16T17:36:58.879Z,17.71
2022-09-16T17:39:26.746Z,17.63
2022-09-16T17:41:56.551Z,17.54
2022-09-16T17:44:24.819Z,17.48
2022-09-16T17:46:53.755Z,17.38
2022-09-16T17:49:23.934Z,17.33
2022-09-16T17:51:53.357Z,17.29
2022-09-16T17:54:21.322Z,17.26
2022-09-16T17:56:48.826Z,17.21
2022-09-16T17:59:19.283Z,17.16
2022-09-16T18:01:47.287Z,17.10
2022-09-16T18:04:16.016Z,17.08
2022-09-16T18:06:46.773Z,17.04
2022-09-16T18:09:16.552Z,17.01
2022-09-16T18:11:44.915Z,17.00
2022-09-16T18:14:13.921Z,16.98
2022-09-16T18:16:42.900Z,16.97
2022-09-16T18:19:10.234Z,16.98
2022-09-16T18:21:39.019Z,17.00
2022-09-16T18:24:11.254Z,17.06
2022-09-16T18:26:39.201Z,17.10
2022-09-16T18:29:10.024Z,17.16
2022-09-16T18:31:38.500Z,17.24
2022-09-16T18:34:06.024Z,17.26
2022-09-16T18:36:35.191Z,17.27
2022-09-16T18:39:06.024Z,17.29
2022-09-16T18:41:37.762Z,17.31
2022-09-16T18:44:10.688Z,17.36
2022-09-16T18:46:38.955Z,17.39
2022-09-16T18:49:07.017Z,17.45
2022-09-16T18:51:37.680Z,17.52
2022-09-16T18:54:10.146Z,17.57
2022-09-16T18:56:39.482Z,17.61
2022-09-16T18:59:28.133Z,17.58
2022-09-16T19:01:58.850Z,17.63
2022-09-16T19:04:29.430Z,17.64
2022-09-16T19:07:05.934Z,17.67
2022-09-16T19:09:37.269Z,17.69
2022-09-16T19:12:06.815Z,17.74
2022-09-16T19:14:34.369Z,17.76
2022-09-16T19:17:02.695Z,17.77
2022-09-16T19:19:30.012Z,17.79
2022-09-16T19:21:57.583Z,17.82
2022-09-16T19:24:27.100Z,17.87
2022-09-16T19:26:56.186Z,17.92
2022-09-16T19:29:23.824Z,17.94
2022-09-16T19:31:52.963Z,17.95
2022-09-16T19:34:21.728Z,17.97
2022-09-16T19:36:49.633Z,17.98
2022-09-16T19:39:17.610Z,18.00
2022-09-16T19:41:45.241Z,18.03
2022-09-16T19:44:17.464Z,18.01
2022-09-16T19:46:47.005Z,18.02
2022-09-16T19:49:17.734Z,18.02
2022-09-16T19:51:45.169Z,18.04
2022-09-16T19:54:12.789Z,18.04
2022-09-16T19:56:40.206Z,18.05
2022-09-16T19:59:07.974Z,18.04
2022-09-16T20:01:37.467Z,18.06
2022-09-16T20:04:07.758Z,18.08
2022-09-16T20:06:37.552Z,18.08
2022-09-16T20:09:07.721Z,18.08
2022-09-16T20:11:38.304Z,18.09
2022-09-16T20:14:08.621Z,18.11
2022-09-16T20:16:39.810Z,18.11
2022-09-16T20:19:10.171Z,18.11
2022-09-16T20:21:38.553Z,18.11
2022-09-16T20:24:08.383Z,18.11
2022-09-16T20:26:36.164Z,18.12
2022-09-16T20:29:05.206Z,18.11
2022-09-16T20:31:36.535Z,18.09
2022-09-16T20:34:05.376Z,18.10
2022-09-16T20:36:38.216Z,18.09
2022-09-16T20:39:07.175Z,18.11
2022-09-16T20:41:37.102Z,18.11
2022-09-16T20:44:05.670Z,18.10
2022-09-16T20:46:37.198Z,18.07
2022-09-16T20:49:09.415Z,18.06
2022-09-16T20:51:37.232Z,18.07
2022-09-16T20:54:08.817Z,18.07
2022-09-16T20:56:39.350Z,18.10
2022-09-16T20:59:07.733Z,18.11
2022-09-16T21:01:38.070Z,18.13
2022-09-16T21:04:08.569Z,18.14
2022-09-16T21:06:36.763Z,18.16
2022-09-16T21:09:08.236Z,18.19
2022-09-16T21:11:35.973Z,18.24
2022-09-16T21:14:08.876Z,18.25
2022-09-16T21:16:40.471Z,18.23
2022-09-16T21:19:10.943Z,18.23
2022-09-16T21:21:41.285Z,18.25
2022-09-16T21:24:09.689Z,18.25
2022-09-16T21:26:39.389Z,18.26
2022-09-16T21:29:10.947Z,18.27
2022-09-16T21:31:42.377Z,18.29
2022-09-16T21:34:13.672Z,18.32
2022-09-16T21:36:41.560Z,18.33
2022-09-16T21:39:09.332Z,18.34
2022-09-16T21:41:37.343Z,18.36
2022-09-16T21:44:05.068Z,18.37
2022-09-16T21:46:41.306Z,18.36
2022-09-16T21:49:18.158Z,18.34
2022-09-16T21:51:45.521Z,18.34
2022-09-16T21:54:16.605Z,18.36
2022-09-16T21:56:46.667Z,18.35
2022-09-16T21:59:14.075Z,18.34
2022-09-16T22:01:41.395Z,18.34
2022-09-16T22:04:14.122Z,18.35
2022-09-16T22:06:42.202Z,18.36
2022-09-16T22:09:11.304Z,18.34
2022-09-16T22:11:41.345Z,18.31
2022-09-16T22:14:11.162Z,18.29
2022-09-16T22:16:39.486Z,18.28
2022-09-16T22:19:11.805Z,18.29
2022-09-16T22:21:44.185Z,18.31
2022-09-16T22:24:12.055Z,18.33
2022-09-16T22:26:39.838Z,18.37
2022-09-16T22:29:09.370Z,18.39
2022-09-16T22:31:40.552Z,18.38
2022-09-16T22:34:09.088Z,18.38
2022-09-16T22:36:38.417Z,18.35
2022-09-16T22:39:13.776Z,18.33
2022-09-16T22:41:41.643Z,18.30
2022-09-16T22:44:08.913Z,18.27
2022-09-16T22:46:42.146Z,18.23
2022-09-16T22:49:10.039Z,18.25
2022-09-16T22:51:37.810Z,18.24
2022-09-16T22:54:07.504Z,18.24
2022-09-16T22:56:35.903Z,18.24
2022-09-16T22:59:06.676Z,18.22
2022-09-16T23:01:38.246Z,18.21
2022-09-16T23:04:08.043Z,18.24
2022-09-16T23:06:37.321Z,18.25
2022-09-16T23:09:08.478Z,18.25
2022-09-16T23:11:36.620Z,18.26
2022-09-16T23:14:06.530Z,18.29
2022-09-16T23:16:37.219Z,18.30
2022-09-16T23:19:07.867Z,18.32
2022-09-16T23:21:36.187Z,18.33
2022-09-16T23:24:08.654Z,18.36
2022-09-16T23:26:38.945Z,18.38
2022-09-16T23:29:09.950Z,18.39
2022-09-16T23:31:40.371Z,18.39
2022-09-16T23:34:11.209Z,18.38
2022-09-16T23:36:39.152Z,18.33
2022-09-16T23:39:09.049Z,18.29
2022-09-16T23:41:36.624Z,18.25
2022-09-16T23:44:04.180Z,18.22
2022-09-16T23:46:31.986Z,18.21
2022-09-16T23:49:00.477Z,18.19
2022-09-16T23:51:29.534Z,18.16
2022-09-16T23:53:59.297Z,18.15
2022-09-16T23:56:28.292Z,18.13
2022-09-16T23:59:00.511Z,18.09
